createdAt,value
2023-04-16T00:00:42.128Z,32.47
2023-04-16T00:02:43.619Z,29.98
2023-04-16T00:04:45.480Z,28.13
2023-04-16T00:06:46.937Z,32.13
2023-04-16T00:08:48.342Z,32.90
2023-04-16T00:10:50.705Z,34.45
2023-04-16T00:12:52.099Z,35.47
2023-04-16T00:14:53.474Z,32.45
2023-04-16T00:16:54.944Z,36.92
2023-04-16T00:18:56.361Z,33.55
2023-04-16T00:20:57.914Z,36.15
2023-04-16T00:22:59.290Z,33.90
2023-04-16T00:25:00.680Z,37.65
2023-04-16T00:27:02.264Z,39.00
2023-04-16T00:29:03.718Z,40.40
2023-04-16T00:31:05.386Z,33.35
2023-04-16T00:33:06.980Z,35.67
2023-04-16T00:35:08.506Z,36.38
2023-04-16T00:37:09.909Z,32.83
2023-04-16T00:39:11.438Z,35.65
2023-04-16T00:41:12.898Z,35.28
2023-04-16T00:43:22.036Z,38.25
2023-04-16T00:45:23.487Z,38.80
2023-04-16T00:47:25.397Z,34.30
2023-04-16T00:49:27.396Z,35.85
2023-04-16T00:51:28.880Z,37.15
2023-04-16T00:53:31.217Z,35.03
2023-04-16T00:55:34.954Z,34.40
2023-04-16T00:57:36.325Z,34.58
2023-04-16T00:59:37.818Z,37.05
2023-04-16T01:01:39.458Z,36.60
2023-04-16T01:03:48.299Z,31.42
2023-04-16T01:05:53.458Z,33.20
2023-04-16T01:07:59.116Z,25.90
2023-04-16T01:10:00.583Z,30.67
2023-04-16T01:12:02.090Z,30.13
2023-04-16T01:14:04.104Z,28.13
2023-04-16T01:16:10.385Z,33.72
2023-04-16T01:18:20.025Z,28.88
2023-04-16T01:20:21.550Z,29.08
2023-04-16T01:22:22.954Z,32.08
2023-04-16T01:24:24.350Z,31.00
2023-04-16T01:26:25.829Z,32.15
2023-04-16T01:28:27.302Z,26.98
2023-04-16T01:30:28.746Z,29.15
2023-04-16T01:32:32.289Z,34.83
2023-04-16T01:34:33.768Z,24.42
2023-04-16T01:36:35.208Z,28.98
2023-04-16T01:38:36.598Z,36.40
2023-04-16T01:40:38.627Z,27.75
2023-04-16T01:42:40.066Z,25.55
2023-04-16T01:44:41.449Z,25.23
2023-04-16T01:46:43.682Z,24.55
2023-04-16T01:48:45.574Z,27.23
2023-04-16T01:50:46.984Z,32.22
2023-04-16T01:52:48.402Z,27.05
2023-04-16T01:54:49.782Z,23.42
2023-04-16T01:56:51.149Z,26.42
2023-04-16T01:58:53.144Z,32.38
2023-04-16T02:00:54.607Z,25.98
2023-04-16T02:02:56.333Z,23.75
2023-04-16T02:04:57.846Z,24.63
2023-04-16T02:06:59.291Z,33.28
2023-04-16T02:09:00.664Z,24.23
2023-04-16T02:11:02.198Z,24.27
2023-04-16T02:13:03.637Z,27.20
2023-04-16T02:15:05.450Z,41.28
2023-04-16T02:17:06.871Z,29.55
2023-04-16T02:19:08.584Z,24.33
2023-04-16T02:21:10.301Z,32.60
2023-04-16T02:23:11.925Z,26.70
2023-04-16T02:25:14.254Z,24.38
2023-04-16T02:27:16.005Z,52.40
2023-04-16T02:29:17.464Z,34.58
2023-04-16T02:31:19.587Z,37.20
2023-04-16T02:33:21.319Z,37.15
2023-04-16T02:35:22.762Z,31.20
2023-04-16T02:37:25.815Z,26.30
2023-04-16T02:39:27.284Z,30.38
2023-04-16T02:41:28.738Z,31.20
2023-04-16T02:43:30.295Z,29.55
2023-04-16T02:45:31.726Z,28.42
2023-04-16T02:47:33.200Z,31.50
2023-04-16T02:49:35.787Z,29.92
2023-04-16T02:51:37.184Z,33.90
2023-04-16T02:53:38.596Z,30.38
2023-04-16T02:55:40.075Z,32.85
2023-04-16T02:57:42.354Z,30.20
2023-04-16T02:59:43.831Z,32.05
2023-04-16T03:01:45.531Z,32.55
2023-04-16T03:03:47.019Z,29.63
2023-04-16T03:05:48.581Z,29.73
2023-04-16T03:07:50.639Z,27.88
2023-04-16T03:09:52.117Z,24.33
2023-04-16T03:11:53.512Z,29.13
2023-04-16T03:13:54.980Z,28.17
2023-04-16T03:15:56.382Z,31.85
2023-04-16T03:17:58.024Z,29.92
2023-04-16T03:19:59.506Z,29.48
2023-04-16T03:22:01.046Z,27.55
2023-04-16T03:24:02.710Z,30.70
2023-04-16T03:26:04.284Z,28.95
2023-04-16T03:28:05.899Z,27.83
2023-04-16T03:30:08.690Z,28.98
2023-04-16T03:32:10.081Z,28.85
2023-04-16T03:34:11.502Z,30.25
2023-04-16T03:36:12.866Z,29.70
2023-04-16T03:38:14.293Z,31.35
2023-04-16T03:40:15.694Z,33.53
2023-04-16T03:42:17.236Z,31.20
2023-04-16T03:44:18.754Z,31.95
2023-04-16T03:46:20.373Z,29.58
2023-04-16T03:48:21.917Z,35.35
2023-04-16T03:50:23.296Z,31.98
2023-04-16T03:52:24.853Z,31.20
2023-04-16T03:54:26.739Z,30.65
2023-04-16T03:56:28.154Z,28.58
2023-04-16T03:58:29.580Z,35.75
2023-04-16T04:00:31.478Z,31.70
2023-04-16T04:02:33.074Z,34.15
2023-04-16T04:04:34.843Z,32.20
2023-04-16T04:06:36.325Z,34.03
2023-04-16T04:08:38.804Z,31.83
2023-04-16T04:10:40.237Z,36.83
2023-04-16T04:12:41.629Z,37.33
2023-04-16T04:14:43.180Z,34.85
2023-04-16T04:16:44.645Z,35.03
2023-04-16T04:18:46.092Z,35.30
2023-04-16T04:20:47.498Z,36.25
2023-04-16T04:22:50.429Z,39.00
2023-04-16T04:24:51.819Z,37.90
2023-04-16T04:26:53.219Z,41.42
2023-04-16T04:28:54.637Z,43.15
2023-04-16T04:31:00.151Z,37.65
2023-04-16T04:33:01.883Z,43.83
2023-04-16T04:35:03.836Z,46.63
2023-04-16T04:37:05.656Z,48.85
2023-04-16T04:39:07.462Z,47.80
2023-04-16T04:41:09.065Z,48.17
2023-04-16T04:43:10.449Z,45.10
2023-04-16T04:45:12.068Z,44.92
2023-04-16T04:47:14.803Z,48.42
2023-04-16T04:49:16.242Z,51.25
2023-04-16T04:51:17.636Z,47.30
2023-04-16T04:53:19.174Z,48.10
2023-04-16T04:55:20.791Z,46.85
2023-04-16T04:57:22.206Z,48.67
2023-04-16T04:59:24.408Z,44.63
2023-04-16T05:01:26.005Z,47.47
2023-04-16T05:03:27.503Z,39.28
2023-04-16T05:05:29.101Z,43.22
2023-04-16T05:07:30.795Z,43.97
2023-04-16T05:09:33.193Z,46.13
2023-04-16T05:11:34.583Z,38.00
2023-04-16T05:13:36.069Z,41.83
2023-04-16T05:15:37.803Z,42.85
2023-04-16T05:17:39.270Z,44.75
2023-04-16T05:19:40.751Z,46.28
2023-04-16T05:21:42.257Z,39.90
2023-04-16T05:23:43.686Z,35.47
2023-04-16T05:25:45.215Z,39.03
2023-04-16T05:27:46.795Z,41.75
2023-04-16T05:29:48.166Z,38.58
2023-04-16T05:31:49.904Z,39.50
2023-04-16T05:33:51.308Z,37.22
2023-04-16T05:35:52.716Z,38.75
2023-04-16T05:37:54.103Z,46.92
2023-04-16T05:39:55.543Z,38.78
2023-04-16T05:41:56.990Z,43.72
2023-04-16T05:43:58.651Z,37.88
2023-04-16T05:46:00.336Z,45.45
2023-04-16T05:48:01.834Z,44.58
2023-04-16T05:50:03.362Z,44.65
2023-04-16T05:52:05.639Z,40.28
2023-04-16T05:54:07.082Z,43.38
2023-04-16T05:56:08.625Z,44.78
2023-04-16T05:58:10.231Z,38.00
2023-04-16T06:00:11.867Z,43.53
2023-04-16T06:02:13.508Z,42.42
2023-04-16T06:04:15.184Z,38.75
2023-04-16T06:06:16.702Z,39.03
2023-04-16T06:08:18.203Z,39.50
2023-04-16T06:10:19.661Z,43.17
2023-04-16T06:12:21.025Z,39.08
2023-04-16T06:14:22.485Z,41.92
2023-04-16T06:16:24.003Z,39.88
2023-04-16T06:18:25.593Z,42.72
2023-04-16T06:20:27.014Z,45.13
2023-04-16T06:22:28.705Z,42.13
2023-04-16T06:24:30.098Z,38.92
2023-04-16T06:26:31.520Z,41.05
2023-04-16T06:28:32.926Z,39.10
2023-04-16T06:30:34.437Z,40.35
2023-04-16T06:32:35.908Z,41.40
2023-04-16T06:34:38.735Z,44.38
2023-04-16T06:36:40.284Z,44.58
2023-04-16T06:38:41.729Z,42.58
2023-04-16T06:40:43.142Z,41.05
2023-04-16T06:42:45.649Z,38.05
2023-04-16T06:44:47.727Z,38.22
2023-04-16T06:46:50.054Z,38.72
2023-04-16T06:48:51.584Z,41.88
2023-04-16T06:50:53.002Z,39.42
2023-04-16T06:52:55.274Z,37.42
2023-04-16T06:54:56.689Z,40.45
2023-04-16T06:56:58.092Z,39.95
2023-04-16T06:59:00.889Z,35.33
2023-04-16T07:01:02.699Z,36.60
2023-04-16T07:03:04.258Z,36.15
2023-04-16T07:05:06.192Z,36.33
2023-04-16T07:07:08.187Z,40.83
2023-04-16T07:09:09.758Z,36.38
2023-04-16T07:11:11.764Z,36.03
2023-04-16T07:13:13.401Z,35.58
2023-04-16T07:15:14.799Z,37.22
2023-04-16T07:17:16.252Z,39.80
2023-04-16T07:19:17.661Z,39.05
2023-04-16T07:21:19.281Z,34.58
2023-04-16T07:23:20.714Z,36.35
2023-04-16T07:25:22.139Z,35.65
2023-04-16T07:27:23.728Z,37.13
2023-04-16T07:29:25.164Z,38.90
2023-04-16T07:31:27.237Z,35.90
2023-04-16T07:33:28.621Z,36.30
2023-04-16T07:35:31.380Z,37.80
2023-04-16T07:37:32.863Z,35.53
2023-04-16T07:39:34.291Z,39.30
2023-04-16T07:41:35.808Z,38.40
2023-04-16T07:43:37.345Z,39.78
2023-04-16T07:45:39.598Z,38.58
2023-04-16T07:47:41.912Z,38.50
2023-04-16T07:49:43.347Z,37.83
2023-04-16T07:51:45.136Z,38.55
2023-04-16T07:53:46.555Z,36.33
2023-04-16T07:55:48.058Z,34.85
2023-04-16T07:57:49.511Z,34.80
2023-04-16T07:59:50.922Z,37.67
2023-04-16T08:01:53.999Z,37.80
2023-04-16T08:03:55.753Z,41.65
2023-04-16T08:05:58.068Z,44.05
2023-04-16T08:07:59.487Z,42.15
2023-04-16T08:10:00.853Z,44.60
2023-04-16T08:12:03.601Z,36.05
2023-04-16T08:14:05.151Z,39.58
2023-04-16T08:16:06.965Z,38.88
2023-04-16T08:18:12.835Z,40.95
2023-04-16T08:20:17.586Z,38.88
2023-04-16T08:22:20.801Z,37.30
2023-04-16T08:24:22.196Z,39.28
2023-04-16T08:26:23.661Z,41.33
2023-04-16T08:28:25.093Z,39.78
2023-04-16T08:30:26.608Z,36.20
2023-04-16T08:32:28.224Z,38.67
2023-04-16T08:34:29.628Z,36.83
2023-04-16T08:36:31.294Z,39.30
2023-04-16T08:38:32.713Z,42.35
2023-04-16T08:40:38.670Z,38.08
2023-04-16T08:42:49.025Z,43.30
2023-04-16T08:44:58.741Z,39.13
2023-04-16T08:47:01.173Z,42.65
2023-04-16T08:49:05.793Z,40.78
2023-04-16T08:51:10.584Z,40.50
2023-04-16T08:53:19.107Z,42.78
2023-04-16T08:55:30.785Z,40.65
2023-04-16T08:57:47.047Z,39.17
2023-04-16T08:59:48.742Z,40.55
2023-04-16T09:01:52.316Z,45.00
2023-04-16T09:03:54.144Z,40.00
2023-04-16T09:05:57.922Z,41.88
2023-04-16T09:07:59.359Z,39.10
2023-04-16T09:10:01.586Z,37.85
2023-04-16T09:12:03.590Z,42.85
2023-04-16T09:14:11.081Z,40.28
2023-04-16T09:16:18.420Z,41.05
2023-04-16T09:18:21.191Z,39.00
2023-04-16T09:20:22.684Z,41.80
2023-04-16T09:22:24.150Z,44.83
2023-04-16T09:24:26.085Z,38.00
2023-04-16T09:26:27.800Z,40.47
2023-04-16T09:28:39.138Z,55.78
2023-04-16T09:30:41.007Z,42.53
2023-04-16T09:32:42.428Z,44.53
2023-04-16T09:34:58.280Z,39.20
2023-04-16T09:37:18.398Z,37.67
2023-04-16T09:39:20.251Z,37.05
2023-04-16T09:41:27.453Z,36.55
2023-04-16T09:43:28.934Z,40.72
2023-04-16T09:45:47.664Z,40.05
2023-04-16T09:47:49.083Z,36.35
2023-04-16T09:49:50.765Z,40.00
2023-04-16T09:51:56.100Z,37.30
2023-04-16T09:53:57.518Z,42.60
2023-04-16T09:56:03.600Z,37.60
2023-04-16T09:58:05.035Z,36.45
2023-04-16T10:00:11.743Z,38.53
2023-04-16T10:02:15.360Z,36.85
2023-04-16T10:04:17.848Z,35.35
2023-04-16T10:06:20.730Z,35.10
2023-04-16T10:08:23.993Z,35.00
2023-04-16T10:10:25.841Z,35.67
2023-04-16T10:12:28.738Z,35.17
2023-04-16T10:14:30.304Z,33.85
2023-04-16T10:16:32.954Z,33.63
2023-04-16T10:18:41.929Z,38.13
2023-04-16T10:20:44.362Z,36.92
2023-04-16T10:22:46.167Z,32.20
2023-04-16T10:24:48.688Z,30.75
2023-04-16T10:26:52.360Z,28.40
2023-04-16T10:28:55.101Z,29.40
2023-04-16T10:30:58.640Z,28.52
2023-04-16T10:33:02.256Z,26.55
2023-04-16T10:35:04.758Z,27.50
2023-04-16T10:37:06.434Z,26.45
2023-04-16T10:39:14.766Z,28.15
2023-04-16T10:41:21.122Z,26.45
2023-04-16T10:43:25.317Z,26.85
2023-04-16T10:45:32.116Z,25.95
2023-04-16T10:49:42.357Z,26.92
2023-04-16T10:51:53.137Z,26.23
2023-04-16T10:53:56.273Z,29.58
2023-04-16T10:56:04.517Z,28.27
2023-04-16T10:58:29.853Z,27.90
2023-04-16T11:00:31.263Z,31.65
2023-04-16T11:02:32.997Z,28.10
2023-04-16T11:04:37.401Z,28.52
2023-04-16T11:06:38.896Z,26.67
2023-04-16T11:08:53.373Z,26.48
2023-04-16T11:10:58.520Z,24.92
2023-04-16T11:13:00.254Z,26.42
2023-04-16T11:15:07.428Z,25.35
2023-04-16T11:17:09.943Z,25.88
2023-04-16T11:19:16.586Z,24.67
2023-04-16T11:21:18.271Z,24.52
2023-04-16T11:23:19.706Z,29.60
2023-04-16T11:25:22.780Z,26.33
2023-04-16T11:27:24.613Z,25.42
2023-04-16T11:29:26.051Z,24.60
2023-04-16T11:31:27.590Z,23.90
2023-04-16T11:33:31.561Z,27.42
2023-04-16T11:35:33.355Z,23.15
2023-04-16T11:37:36.426Z,24.15
2023-04-16T11:39:53.049Z,22.77
2023-04-16T11:41:55.452Z,22.10
2023-04-16T11:43:57.389Z,23.67
2023-04-16T11:46:01.637Z,24.35
2023-04-16T11:48:04.204Z,20.85
2023-04-16T11:50:18.612Z,20.63
2023-04-16T11:52:33.782Z,20.00
2023-04-16T11:54:36.555Z,24.77
2023-04-16T11:56:38.030Z,21.77
2023-04-16T11:58:43.058Z,22.33
2023-04-16T12:00:45.189Z,20.65
2023-04-16T12:02:52.072Z,20.98
2023-04-16T12:04:53.956Z,20.80
2023-04-16T12:07:12.265Z,21.23
2023-04-16T12:09:27.149Z,21.40
2023-04-16T12:11:41.258Z,21.15
2023-04-16T12:13:42.666Z,22.35
2023-04-16T12:15:55.948Z,20.67
2023-04-16T12:18:08.033Z,20.52
2023-04-16T12:20:11.648Z,22.10
2023-04-16T12:22:13.169Z,23.10
2023-04-16T12:24:16.922Z,22.88
2023-04-16T12:26:18.379Z,20.45
2023-04-16T12:28:33.938Z,22.02
2023-04-16T12:30:50.578Z,22.38
2023-04-16T12:33:13.037Z,20.80
2023-04-16T12:35:29.821Z,24.33
2023-04-16T12:37:31.492Z,21.05
2023-04-16T12:39:32.912Z,22.25
2023-04-16T12:41:37.490Z,20.75
2023-04-16T12:43:38.955Z,18.55
2023-04-16T12:45:40.705Z,23.02
2023-04-16T12:47:42.142Z,22.25
2023-04-16T12:49:44.696Z,21.67
2023-04-16T12:51:46.823Z,16.73
2023-04-16T12:53:48.610Z,17.27
2023-04-16T12:55:50.487Z,20.08
2023-04-16T12:57:55.596Z,20.55
2023-04-16T12:59:58.308Z,21.80
2023-04-16T13:02:02.260Z,18.70
2023-04-16T13:04:04.109Z,17.10
2023-04-16T13:06:05.793Z,17.13
2023-04-16T13:08:07.245Z,18.55
2023-04-16T13:10:09.603Z,15.95
2023-04-16T13:12:11.405Z,16.73
2023-04-16T13:14:12.781Z,19.92
2023-04-16T13:16:14.266Z,16.17
2023-04-16T13:18:15.853Z,16.48
2023-04-16T13:20:17.550Z,15.48
2023-04-16T13:22:19.041Z,16.92
2023-04-16T13:24:20.596Z,17.27
2023-04-16T13:26:22.074Z,15.13
2023-04-16T13:28:23.496Z,16.63
2023-04-16T13:30:25.570Z,17.30
2023-04-16T13:32:27.117Z,17.70
2023-04-16T13:34:28.573Z,18.35
2023-04-16T13:36:32.027Z,17.08
2023-04-16T13:38:33.559Z,17.05
2023-04-16T13:40:34.940Z,17.67
2023-04-16T13:42:36.342Z,21.40
2023-04-16T13:44:37.739Z,19.17
2023-04-16T13:46:39.216Z,19.02
2023-04-16T13:48:40.804Z,18.08
2023-04-16T13:50:42.321Z,18.98
2023-04-16T13:52:43.772Z,19.83
2023-04-16T13:54:45.216Z,17.80
2023-04-16T13:56:46.690Z,18.27
2023-04-16T13:58:48.574Z,18.00
2023-04-16T14:00:50.178Z,20.10
2023-04-16T14:02:52.553Z,21.00
2023-04-16T14:04:54.179Z,19.13
2023-04-16T14:06:56.073Z,17.00
2023-04-16T14:08:57.678Z,16.75
2023-04-16T14:10:59.192Z,16.88
2023-04-16T14:13:00.621Z,18.67
2023-04-16T14:15:04.303Z,19.02
2023-04-16T14:17:05.707Z,18.27
2023-04-16T14:19:07.113Z,15.98
2023-04-16T14:21:09.181Z,16.33
2023-04-16T14:23:12.374Z,14.73
2023-04-16T14:25:13.815Z,16.73
2023-04-16T14:27:15.354Z,18.10
2023-04-16T14:29:16.855Z,16.77
2023-04-16T14:31:19.831Z,15.40
2023-04-16T14:33:21.274Z,16.65
2023-04-16T14:35:23.232Z,14.90
2023-04-16T14:37:24.796Z,16.25
2023-04-16T14:39:27.068Z,14.05
2023-04-16T14:41:28.526Z,14.85
2023-04-16T14:43:29.984Z,15.52
2023-04-16T14:45:32.434Z,18.13
2023-04-16T14:47:34.909Z,15.48
2023-04-16T14:49:36.360Z,15.70
2023-04-16T14:51:37.814Z,18.30
2023-04-16T14:53:39.303Z,14.60
2023-04-16T14:55:40.741Z,14.65
2023-04-16T14:57:42.263Z,15.13
2023-04-16T14:59:43.792Z,14.90
2023-04-16T15:01:46.109Z,15.52
2023-04-16T15:03:47.778Z,14.43
2023-04-16T15:05:55.356Z,13.75
2023-04-16T15:07:57.160Z,17.17
2023-04-16T15:09:58.951Z,13.23
2023-04-16T15:12:00.693Z,14.38
2023-04-16T15:14:02.094Z,16.48
2023-04-16T15:16:06.642Z,14.88
2023-04-16T15:18:08.533Z,14.80
2023-04-16T15:20:10.516Z,15.10
2023-04-16T15:22:12.546Z,15.93
2023-04-16T15:24:13.957Z,17.52
2023-04-16T15:26:15.439Z,15.80
2023-04-16T15:28:16.923Z,13.35
2023-04-16T15:30:18.559Z,14.90
2023-04-16T15:32:20.038Z,14.82
2023-04-16T15:34:21.457Z,16.23
2023-04-16T15:36:23.103Z,16.98
2023-04-16T15:38:24.555Z,16.27
2023-04-16T15:40:25.996Z,16.45
2023-04-16T15:42:27.448Z,16.10
2023-04-16T15:44:30.225Z,15.18
2023-04-16T15:46:31.926Z,15.50
2023-04-16T15:48:33.385Z,16.13
2023-04-16T15:50:35.143Z,16.45
2023-04-16T15:52:39.359Z,15.23
2023-04-16T15:54:40.973Z,16.52
2023-04-16T15:56:42.460Z,15.98
2023-04-16T15:58:43.932Z,14.95
2023-04-16T16:00:47.522Z,18.08
2023-04-16T16:02:49.008Z,15.35
2023-04-16T16:04:50.727Z,19.80
2023-04-16T16:06:53.034Z,16.25
2023-04-16T16:08:54.724Z,16.23
2023-04-16T16:10:56.393Z,15.38
2023-04-16T16:12:58.089Z,17.63
2023-04-16T16:14:59.651Z,17.85
2023-04-16T16:17:01.213Z,18.92
2023-04-16T16:19:02.693Z,17.33
2023-04-16T16:21:04.324Z,19.77
2023-04-16T16:23:05.822Z,16.63
2023-04-16T16:25:07.588Z,19.38
2023-04-16T16:27:08.981Z,16.73
2023-04-16T16:29:10.543Z,20.08
2023-04-16T16:31:12.470Z,17.20
2023-04-16T16:33:14.403Z,16.02
2023-04-16T16:35:15.918Z,16.60
2023-04-16T16:37:17.386Z,16.30
2023-04-16T16:39:22.275Z,17.00
2023-04-16T16:41:23.688Z,15.85
2023-04-16T16:43:25.152Z,16.27
2023-04-16T16:45:27.111Z,16.52
2023-04-16T16:47:28.596Z,17.75
2023-04-16T16:49:30.167Z,15.10
2023-04-16T16:51:33.545Z,18.92
2023-04-16T16:53:34.912Z,17.20
2023-04-16T16:55:36.417Z,15.35
2023-04-16T16:57:39.066Z,15.60
2023-04-16T16:59:40.470Z,15.73
2023-04-16T17:01:41.856Z,16.52
2023-04-16T17:03:44.246Z,18.65
2023-04-16T17:05:45.893Z,16.50
2023-04-16T17:07:47.382Z,15.63
2023-04-16T17:09:48.863Z,12.82
2023-04-16T17:11:50.320Z,15.55
2023-04-16T17:13:51.882Z,15.15
2023-04-16T17:15:53.257Z,17.23
2023-04-16T17:17:54.720Z,16.27
2023-04-16T17:19:56.221Z,13.77
2023-04-16T17:21:57.601Z,16.92
2023-04-16T17:23:59.151Z,15.38
2023-04-16T17:26:00.656Z,16.92
2023-04-16T17:28:02.739Z,15.10
2023-04-16T17:30:05.679Z,16.13
2023-04-16T17:32:07.237Z,14.65
2023-04-16T17:34:08.843Z,15.52
2023-04-16T17:36:10.570Z,15.80
2023-04-16T17:38:11.974Z,15.80
2023-04-16T17:40:15.458Z,16.20
2023-04-16T17:42:17.392Z,14.13
2023-04-16T17:44:18.925Z,12.85
2023-04-16T17:46:20.456Z,15.25
2023-04-16T17:48:22.036Z,13.93
2023-04-16T17:50:23.461Z,15.32
2023-04-16T17:52:24.902Z,12.63
2023-04-16T17:54:26.572Z,20.45
2023-04-16T17:56:27.997Z,15.52
2023-04-16T17:58:32.796Z,14.55
2023-04-16T18:00:34.222Z,15.25
2023-04-16T18:02:35.788Z,15.23
2023-04-16T18:04:37.445Z,15.73
2023-04-16T18:06:38.958Z,16.00
2023-04-16T18:08:40.361Z,14.25
2023-04-16T18:13:08.349Z,15.80
2023-04-16T18:15:10.434Z,15.95
2023-04-16T18:17:12.913Z,15.93
2023-04-16T18:19:17.119Z,16.35
2023-04-16T18:21:18.535Z,15.07
2023-04-16T18:23:19.921Z,15.80
2023-04-16T18:25:32.305Z,12.63
2023-04-16T18:27:36.210Z,15.05
2023-04-16T18:29:39.867Z,14.32
2023-04-16T18:33:56.589Z,13.57
2023-04-16T18:36:01.762Z,15.25
2023-04-16T18:38:03.181Z,13.32
2023-04-16T18:40:05.725Z,14.15
2023-04-16T18:42:07.796Z,12.82
2023-04-16T18:44:10.875Z,13.68
2023-04-16T18:48:37.893Z,15.35
2023-04-16T18:50:39.279Z,12.95
2023-04-16T18:52:41.072Z,15.15
2023-04-16T18:54:43.484Z,15.10
2023-04-16T18:56:45.018Z,14.23
2023-04-16T18:58:47.559Z,15.77
2023-04-16T19:00:58.338Z,18.10
2023-04-16T19:03:00.006Z,19.75
2023-04-16T19:05:01.727Z,16.70
2023-04-16T19:07:03.639Z,18.98
2023-04-16T19:09:05.047Z,15.13
2023-04-16T19:11:06.520Z,16.02
2023-04-16T19:13:07.964Z,15.75
2023-04-16T19:15:09.736Z,17.27
2023-04-16T19:17:12.237Z,16.35
2023-04-16T19:19:13.930Z,14.98
2023-04-16T19:21:15.486Z,15.05
2023-04-16T19:23:16.963Z,16.70
2023-04-16T19:25:18.435Z,17.17
